Terminal Aerodrome Forecast
Issued by NWS Wichita, KS

Home | Current Version | Previous Version | Text Only | Print | Product List | Glossary On
Versions: 1 2 3 4 5 6 7 8 9 10 11 12 13 14 15
000
FTUS43 KICT 281120
TAFICT
TAF
KICT 281120Z 2812/2912 20008KT P6SM FEW100
     FM281700 25007KT P6SM SCT080
     FM282200 33012KT P6SM VCTS SCT040CB BKN080
     FM290300 03007KT P6SM BKN100
     FM290600 VRB05KT P6SM SCT250=

USA.gov is the U.S. government's official web portal to all federal, state and local government web resources and services.